Time;durP1;ratioP1;P1;durP2;ratioP2;P2;SDS_P1;SDS_P2;PMS_P1;PMS_P2;Temp;Humidity;BMP_temperature;BMP_pressure;BME280_temperature;BME280_humidity;BME280_pressure;Samples;Min_cycle;Max_cycle;Signal;HPM_P1;HPM_P2
2023/09/08 00:02:27;;;;;;;9.20;4.10;;;;;;;13.70;63.94;100758.10;106460;1256;72476;-80
2023/09/08 00:04:54;;;;;;;9.20;4.60;;;;;;;13.68;63.98;100758.09;106151;1253;60539;-80
2023/09/08 00:07:20;;;;;;;8.60;4.40;;;;;;;13.64;64.03;100760.38;106921;1252;60842;-79
2023/09/08 00:09:48;;;;;;;8.10;4.50;;;;;;;13.59;64.16;100762.14;106758;1258;72744;-79
2023/09/08 00:12:15;;;;;;;7.30;5.00;;;;;;;13.58;64.22;100766.67;106966;1253;68976;-78
2023/09/08 00:14:45;;;;;;;8.40;4.50;;;;;;;13.56;64.51;100765.06;107128;1253;72010;-78
2023/09/08 00:17:12;;;;;;;8.80;4.70;;;;;;;13.53;64.45;100765.52;106177;1253;60427;-78
2023/09/08 00:19:39;;;;;;;8.00;4.40;;;;;;;13.51;64.59;100766.66;106100;1253;60391;-78
2023/09/08 00:22:08;;;;;;;7.90;4.20;;;;;;;13.48;64.54;100762.70;105965;1251;60812;-80
2023/09/08 00:24:35;;;;;;;7.20;4.10;;;;;;;13.46;64.70;100766.70;106096;1252;70358;-77
2023/09/08 00:27:01;;;;;;;8.30;4.30;;;;;;;13.42;64.74;100765.16;105956;1253;72717;-79
2023/09/08 00:29:28;;;;;;;8.40;4.30;;;;;;;13.41;64.97;100765.23;106182;1251;60465;-80
2023/09/08 00:31:55;;;;;;;6.80;4.00;;;;;;;13.40;64.87;100762.68;106668;1251;60762;-82
2023/09/08 00:34:22;;;;;;;8.50;4.70;;;;;;;13.39;64.99;100758.91;109081;1251;72392;-81
2023/09/08 00:36:49;;;;;;;8.50;4.20;;;;;;;13.37;65.19;100757.66;108654;1251;69066;-80
2023/09/08 00:39:15;;;;;;;9.90;4.10;;;;;;;13.38;65.14;100756.48;107265;1251;71087;-81
2023/09/08 00:41:42;;;;;;;9.00;4.40;;;;;;;13.40;65.21;100752.94;106607;1253;60486;-81
2023/09/08 00:44:11;;;;;;;9.00;4.50;;;;;;;13.39;65.18;100752.63;106493;1251;60457;-79
2023/09/08 00:46:38;;;;;;;9.30;4.90;;;;;;;13.37;65.11;100751.30;106541;1259;73961;-79
2023/09/08 00:49:04;;;;;;;8.50;4.50;;;;;;;13.32;65.02;100747.48;107814;1253;68997;-80
2023/09/08 00:51:31;;;;;;;9.40;4.40;;;;;;;13.31;64.98;100752.02;107946;1253;71445;-80
2023/09/08 00:53:58;;;;;;;6.80;3.80;;;;;;;13.32;65.22;100749.48;106474;1253;60485;-80
2023/09/08 00:56:24;;;;;;;7.90;4.20;;;;;;;13.31;65.16;100753.34;106450;1253;60522;-82
2023/09/08 00:58:51;;;;;;;8.80;4.70;;;;;;;13.30;65.54;100754.83;106558;1253;72618;-82
2023/09/08 01:01:17;;;;;;;7.20;4.10;;;;;;;13.32;65.71;100758.38;107033;1253;60408;-81
2023/09/08 01:03:44;;;;;;;6.60;4.40;;;;;;;13.42;65.68;100757.98;106501;1253;73021;-81
2023/09/08 01:06:11;;;;;;;8.00;4.90;;;;;;;13.54;65.50;100757.09;106137;1253;60355;-81
2023/09/08 01:08:39;;;;;;;6.80;4.20;;;;;;;13.59;65.60;100756.46;106249;1251;60411;-81
2023/09/08 01:11:07;;;;;;;11.00;4.90;;;;;;;13.56;65.53;100759.48;106749;1255;72681;-81
2023/09/08 01:13:33;;;;;;;6.10;4.30;;;;;;;13.52;65.50;100755.34;106908;1253;68148;-82
2023/09/08 01:16:01;;;;;;;6.00;4.10;;;;;;;13.46;65.77;100752.13;106361;1253;72467;-82
2023/09/08 01:18:29;;;;;;;9.40;4.10;;;;;;;13.41;65.61;100751.54;106619;1253;60445;-83
2023/09/08 01:21:35;;;;;;;6.80;4.10;;;;;;;13.36;65.68;100750.42;106773;1253;60525;-83
2023/09/08 01:24:04;;;;;;;5.60;3.80;;;;;;;13.30;65.88;100753.27;106530;1253;72379;-81
2023/09/08 01:26:31;;;;;;;6.70;4.00;;;;;;;13.25;66.17;100758.20;106673;1253;70190;-81
2023/09/08 01:28:58;;;;;;;7.00;4.50;;;;;;;13.18;66.15;100760.66;107207;1253;71502;-81
2023/09/08 01:31:24;;;;;;;8.10;4.40;;;;;;;13.12;66.19;100760.77;109298;1251;58239;-81
2023/09/08 01:33:51;;;;;;;7.20;4.70;;;;;;;13.09;66.24;100763.38;109452;1252;58910;-82
2023/09/08 01:36:18;;;;;;;6.60;4.20;;;;;;;13.10;66.37;100761.83;108658;1253;72294;-81
2023/09/08 01:38:45;;;;;;;7.60;5.10;;;;;;;13.11;66.46;100766.73;108178;1251;68800;-81
2023/09/08 01:41:11;;;;;;;9.20;4.50;;;;;;;13.11;66.43;100765.52;108880;1251;71177;-80
2023/09/08 01:43:39;;;;;;;7.80;4.40;;;;;;;13.07;66.60;100769.85;108334;1250;60427;-81
2023/09/08 01:46:06;;;;;;;7.90;4.60;;;;;;;13.04;66.59;100767.33;107547;1254;60358;-82
2023/09/08 01:48:33;;;;;;;8.10;4.60;;;;;;;13.02;66.70;100769.50;107075;1251;72259;-82
2023/09/08 01:51:00;;;;;;;8.60;4.40;;;;;;;13.01;66.77;100764.81;107062;1256;68533;-82
2023/09/08 01:53:27;;;;;;;6.60;4.50;;;;;;;12.99;66.75;100764.90;106788;1253;71349;-82
2023/09/08 01:55:54;;;;;;;8.30;4.30;;;;;;;12.96;66.74;100760.61;106916;1252;60470;-83
2023/09/08 01:58:21;;;;;;;16.20;4.60;;;;;;;13.04;66.52;100757.92;107252;1253;60477;-83
2023/09/08 02:00:50;;;;;;;11.00;4.70;;;;;;;13.13;66.33;100755.17;107311;1256;72482;-81
2023/09/08 02:03:17;;;;;;;7.40;4.40;;;;;;;13.15;66.29;100752.48;106585;1258;68859;-81
2023/09/08 02:05:45;;;;;;;7.40;4.10;;;;;;;13.13;66.29;100749.08;106286;1253;71214;-83
2023/09/08 02:08:12;;;;;;;10.40;4.70;;;;;;;13.13;66.44;100744.10;107781;1251;60437;-79
2023/09/08 02:10:40;;;;;;;10.90;4.80;;;;;;;13.11;66.29;100746.99;107526;1258;59191;-81
2023/09/08 02:13:06;;;;;;;10.30;4.30;;;;;;;13.10;66.22;100746.21;106710;1254;72656;-82
2023/09/08 02:15:35;;;;;;;7.80;3.90;;;;;;;13.08;66.15;100743.91;106192;1256;60428;-82
2023/09/08 02:18:02;;;;;;;7.30;3.70;;;;;;;13.05;66.17;100745.84;106187;1253;72483;-82
2023/09/08 02:20:28;;;;;;;8.80;4.00;;;;;;;13.02;66.13;100741.55;106062;1253;60525;-81
2023/09/08 02:22:55;;;;;;;10.00;4.60;;;;;;;12.98;66.26;100739.80;105761;1253;60557;-83
2023/09/08 02:25:23;;;;;;;8.90;4.70;;;;;;;12.95;66.45;100741.52;106030;1256;73752;-82
2023/09/08 02:27:50;;;;;;;9.50;4.80;;;;;;;12.91;66.78;100741.80;105802;1258;70337;-81
2023/09/08 02:30:16;;;;;;;8.60;4.30;;;;;;;12.86;66.99;100739.46;105929;1257;72463;-81
2023/09/08 02:32:43;;;;;;;9.00;4.90;;;;;;;12.83;67.03;100739.27;106095;1251;60456;-80
2023/09/08 02:35:10;;;;;;;12.90;6.10;;;;;;;12.78;67.26;100736.52;106048;1256;60405;-81
2023/09/08 02:37:38;;;;;;;10.00;4.80;;;;;;;12.74;67.43;100737.08;106020;1255;72770;-80
2023/09/08 02:40:06;;;;;;;7.50;4.90;;;;;;;12.72;67.53;100734.48;106157;1258;69187;-81
2023/09/08 02:42:33;;;;;;;8.70;4.80;;;;;;;12.71;67.45;100737.25;107012;1255;71888;-81
2023/09/08 02:45:00;;;;;;;9.10;4.70;;;;;;;12.79;67.13;100733.55;108147;1251;60520;-82
2023/09/08 02:47:27;;;;;;;9.00;5.80;;;;;;;12.88;67.04;100733.34;109070;1253;58893;-82
2023/09/08 02:49:54;;;;;;;9.20;4.90;;;;;;;12.88;66.89;100729.11;108089;1253;72341;-84
2023/09/08 02:52:20;;;;;;;8.40;5.10;;;;;;;12.87;66.70;100729.91;106768;1253;70234;-81
2023/09/08 02:54:47;;;;;;;10.00;4.50;;;;;;;12.86;66.72;100730.20;106364;1258;60482;-82
2023/09/08 02:57:13;;;;;;;7.90;4.90;;;;;;;12.85;66.70;100730.90;106210;1253;60445;-82
2023/09/08 02:59:40;;;;;;;8.40;5.70;;;;;;;12.84;66.81;100730.39;106076;1253;60659;-81
2023/09/08 03:02:07;;;;;;;9.60;5.30;;;;;;;12.84;66.77;100732.95;106028;1253;73948;-82
2023/09/08 03:04:35;;;;;;;9.10;5.40;;;;;;;12.81;66.77;100733.73;106157;1256;70188;-82
2023/09/08 03:07:02;;;;;;;7.50;4.70;;;;;;;12.79;67.00;100732.00;106007;1257;72538;-83
2023/09/08 03:09:29;;;;;;;10.90;5.50;;;;;;;12.76;66.89;100732.85;106055;1254;60896;-82
2023/09/08 03:11:55;;;;;;;9.40;5.30;;;;;;;12.74;67.06;100731.93;105937;1251;60450;-82
2023/09/08 03:14:22;;;;;;;11.80;6.20;;;;;;;12.72;67.17;100731.59;105805;1259;191240;-82
2023/09/08 03:19:21;;;;;;;8.90;5.30;;;;;;;12.67;67.39;100723.84;102632;1292;600214;-82
2023/09/08 03:21:49;;;;;;;10.60;5.20;;;;;;;12.61;67.32;100725.66;104849;1266;60134;-81
2023/09/08 03:24:16;;;;;;;9.90;5.20;;;;;;;12.58;67.38;100726.18;106459;1266;60048;-80
2023/09/08 03:26:44;;;;;;;9.80;5.00;;;;;;;12.65;67.41;100730.45;106497;1266;70692;-81
2023/09/08 03:29:11;;;;;;;10.90;5.30;;;;;;;12.73;67.31;100736.83;105101;1266;69956;-80
2023/09/08 03:31:39;;;;;;;9.90;5.70;;;;;;;12.73;67.19;100734.71;105440;1260;72404;-82
2023/09/08 03:34:07;;;;;;;8.90;6.10;;;;;;;12.74;67.11;100741.58;105467;1259;168118;-82
2023/09/08 03:36:35;;;;;;;12.10;5.50;;;;;;;12.77;67.37;100736.63;105778;1256;59350;-81
2023/09/08 03:39:03;;;;;;;9.40;5.00;;;;;;;12.78;67.43;100739.16;105897;1257;71267;-82
2023/09/08 03:41:30;;;;;;;8.90;5.50;;;;;;;12.76;67.43;100735.81;105789;1262;68973;-83
2023/09/08 03:43:59;;;;;;;8.20;4.60;;;;;;;12.74;67.55;100734.30;105977;1256;72167;-82
2023/09/08 03:46:26;;;;;;;7.40;5.50;;;;;;;12.70;67.65;100729.92;106289;1263;59688;-81
2023/09/08 03:48:58;;;;;;;12.40;5.30;;;;;;;12.69;67.84;100724.85;106597;1257;59583;-81
2023/09/08 03:51:29;;;;;;;14.70;5.90;;;;;;;12.70;67.68;100723.16;108388;1257;72986;-81
2023/09/08 03:53:56;;;;;;;10.70;5.60;;;;;;;12.71;67.57;100725.83;108478;1256;69076;-81
2023/09/08 03:56:24;;;;;;;12.00;5.80;;;;;;;12.73;67.27;100722.80;106920;1256;71402;-80
2023/09/08 03:58:52;;;;;;;9.80;5.20;;;;;;;12.76;66.96;100719.52;106130;1256;59743;-80
2023/09/08 04:01:19;;;;;;;7.60;5.70;;;;;;;12.78;66.90;100719.70;106917;1253;60248;-81
2023/09/08 04:03:47;;;;;;;12.20;5.90;;;;;;;12.82;66.70;100722.85;107957;1253;72142;-79
2023/09/08 04:06:15;;;;;;;11.30;6.00;;;;;;;12.89;66.63;100721.95;105933;1258;69354;-79
2023/09/08 04:08:43;;;;;;;9.10;4.90;;;;;;;12.94;66.88;100721.71;105838;1256;72982;-81
2023/09/08 04:11:11;;;;;;;11.40;6.40;;;;;;;13.03;67.19;100723.09;105813;1256;60293;-80
2023/09/08 04:13:38;;;;;;;11.90;5.80;;;;;;;13.16;67.07;100723.70;105752;1258;59549;-79
2023/09/08 04:16:06;;;;;;;10.10;5.70;;;;;;;13.24;66.65;100729.10;105984;1253;73627;-81
2023/09/08 04:18:33;;;;;;;9.70;5.60;;;;;;;13.28;66.49;100729.36;105793;1259;69296;-79
2023/09/08 04:21:01;;;;;;;12.10;5.70;;;;;;;13.34;66.29;100726.30;105784;1256;71783;-80
2023/09/08 04:23:28;;;;;;;12.70;5.80;;;;;;;13.40;66.24;100727.84;105676;1261;59730;-80
2023/09/08 04:25:57;;;;;;;6.30;5.00;;;;;;;13.45;66.04;100728.34;105826;1258;59658;-80
2023/09/08 04:28:25;;;;;;;12.60;5.50;;;;;;;13.52;66.08;100725.98;107542;1253;71616;-79
2023/09/08 04:30:53;;;;;;;9.00;4.90;;;;;;;13.60;65.67;100724.45;107959;1258;69087;-82
2023/09/08 04:33:20;;;;;;;12.00;4.90;;;;;;;13.66;65.36;100723.81;107776;1254;71663;-81
2023/09/08 04:35:48;;;;;;;8.10;4.50;;;;;;;13.73;65.27;100727.98;108197;1254;59316;-81
2023/09/08 04:38:15;;;;;;;6.90;4.40;;;;;;;13.82;65.03;100728.64;107962;1254;59984;-80
2023/09/08 04:40:46;;;;;;;12.60;5.60;;;;;;;13.91;65.08;100725.88;107682;1254;73062;-78
2023/09/08 04:43:14;;;;;;;11.50;4.90;;;;;;;14.02;65.17;100726.38;106498;1259;68914;-77
2023/09/08 04:45:42;;;;;;;8.80;5.00;;;;;;;14.12;64.78;100727.39;107256;1253;72503;-77
2023/09/08 04:48:10;;;;;;;7.90;4.70;;;;;;;14.24;64.35;100728.81;107694;1257;59270;-78
2023/09/08 04:50:39;;;;;;;7.50;5.30;;;;;;;14.32;64.04;100725.52;105735;1258;59201;-76
2023/09/08 04:53:08;;;;;;;10.20;5.10;;;;;;;14.40;63.72;100725.46;105794;1254;70633;-73
2023/09/08 04:55:36;;;;;;;9.00;5.00;;;;;;;14.48;63.52;100724.41;106502;1253;68738;-73
2023/09/08 04:58:04;;;;;;;6.40;4.70;;;;;;;14.55;63.19;100717.73;106451;1256;72747;-73
2023/09/08 05:00:33;;;;;;;7.40;4.30;;;;;;;14.65;62.79;100717.73;105768;1254;60166;-75
2023/09/08 05:03:01;;;;;;;6.80;4.60;;;;;;;14.74;62.50;100717.25;105599;1254;60125;-77
2023/09/08 05:05:29;;;;;;;7.40;4.70;;;;;;;14.85;62.55;100715.70;105747;1253;71879;-73
2023/09/08 05:07:57;;;;;;;8.30;4.40;;;;;;;14.95;62.12;100720.42;105468;1259;68677;-79
2023/09/08 05:10:25;;;;;;;8.60;4.20;;;;;;;15.03;62.25;100719.67;105751;1258;71164;-80
2023/09/08 05:12:52;;;;;;;8.50;4.90;;;;;;;15.08;62.51;100716.95;105666;1253;60040;-79
2023/09/08 05:15:21;;;;;;;8.20;4.60;;;;;;;15.16;62.64;100717.56;105872;1258;59491;-79
2023/09/08 05:17:52;;;;;;;7.10;4.30;;;;;;;15.20;62.73;100716.70;106796;1256;73067;-79
2023/09/08 05:20:21;;;;;;;9.00;5.20;;;;;;;15.26;62.85;100720.35;106545;1260;69001;-79
2023/09/08 05:22:48;;;;;;;9.50;4.90;;;;;;;15.34;63.04;100717.11;106109;1260;71812;-80
2023/09/08 05:25:15;;;;;;;6.60;4.20;;;;;;;15.45;62.99;100712.61;108228;1254;59629;-76
2023/09/08 05:27:45;;;;;;;7.70;4.50;;;;;;;15.58;62.78;100708.83;109063;1254;58827;-77
2023/09/08 05:30:15;;;;;;;9.00;5.00;;;;;;;15.69;62.76;100701.50;108744;1255;71914;-80
2023/09/08 05:32:43;;;;;;;6.40;3.80;;;;;;;15.80;62.71;100697.48;106485;1260;68702;-78
2023/09/08 05:35:10;;;;;;;9.00;4.80;;;;;;;15.95;62.45;100693.48;106485;1255;71428;-78
2023/09/08 05:37:39;;;;;;;6.90;4.50;;;;;;;16.10;62.24;100694.23;106024;1258;59623;-77
2023/09/08 05:40:07;;;;;;;7.50;3.50;;;;;;;16.23;61.85;100696.23;105767;1256;59614;-78
2023/09/08 05:42:35;;;;;;;7.30;4.40;;;;;;;16.37;61.77;100690.17;105836;1254;71866;-80
2023/09/08 05:45:03;;;;;;;6.20;4.50;;;;;;;16.50;61.45;100689.99;105960;1258;69179;-79
2023/09/08 05:47:30;;;;;;;7.60;4.70;;;;;;;16.64;61.00;100693.36;106303;1256;72930;-80
2023/09/08 05:49:58;;;;;;;9.20;4.50;;;;;;;16.76;60.45;100694.44;106672;1254;59760;-80
2023/09/08 05:52:28;;;;;;;7.70;4.50;;;;;;;16.86;59.98;100695.92;106399;1253;59730;-79
2023/09/08 05:54:56;;;;;;;8.60;4.80;;;;;;;16.96;59.61;100694.04;107020;1254;73108;-80
2023/09/08 05:57:25;;;;;;;11.20;5.10;;;;;;;17.04;59.34;100694.06;106745;1260;72722;-79
2023/09/08 05:59:54;;;;;;;9.20;4.90;;;;;;;17.12;59.34;100689.73;108224;1254;71446;-79
2023/09/08 06:02:22;;;;;;;13.90;5.30;;;;;;;17.23;59.18;100688.19;107405;1256;60185;-79
2023/09/08 06:04:49;;;;;;;10.00;5.10;;;;;;;17.32;59.02;100686.17;107890;1256;59981;-76
2023/09/08 06:07:17;;;;;;;9.10;4.70;;;;;;;17.42;58.44;100688.59;105914;1255;72144;-76
2023/09/08 06:09:45;;;;;;;9.30;4.80;;;;;;;17.50;58.06;100687.36;105839;1256;68596;-76
2023/09/08 06:12:12;;;;;;;7.80;4.40;;;;;;;17.59;58.09;100687.48;105775;1260;70685;-76
2023/09/08 06:14:40;;;;;;;6.40;3.80;;;;;;;17.69;57.94;100691.08;105694;1256;60267;-76
2023/09/08 06:17:11;;;;;;;8.40;4.00;;;;;;;17.79;56.67;100689.27;105860;1259;59701;-77
2023/09/08 06:19:38;;;;;;;11.10;4.90;;;;;;;17.82;55.94;100683.71;105775;1258;72193;-75
2023/09/08 06:22:06;;;;;;;9.10;4.30;;;;;;;17.85;55.87;100685.68;105691;1253;68883;-76
2023/09/08 06:24:33;;;;;;;10.00;3.80;;;;;;;17.92;55.92;100682.27;105789;1258;70461;-78
2023/09/08 06:27:01;;;;;;;10.90;4.10;;;;;;;18.00;55.63;100680.67;105758;1253;59590;-75
2023/09/08 06:29:28;;;;;;;5.60;3.10;;;;;;;18.08;55.48;100674.08;105732;1253;60117;-76
2023/09/08 06:31:56;;;;;;;9.10;3.70;;;;;;;18.17;54.95;100676.88;105655;1253;73047;-76
2023/09/08 06:34:25;;;;;;;7.20;3.40;;;;;;;18.25;54.38;100679.02;105791;1258;68706;-77
2023/09/08 06:36:53;;;;;;;7.20;4.10;;;;;;;18.34;54.12;100677.63;105841;1256;72428;-76
2023/09/08 06:39:21;;;;;;;7.70;3.70;;;;;;;18.41;53.70;100675.65;105617;1256;59743;-75
2023/09/08 06:41:50;;;;;;;5.90;3.50;;;;;;;18.46;53.01;100674.40;105554;1254;59662;-78
2023/09/08 06:44:20;;;;;;;5.70;2.80;;;;;;;18.48;52.99;100668.08;105677;1253;73078;-77
2023/09/08 06:46:47;;;;;;;5.00;2.70;;;;;;;18.53;52.63;100664.95;105518;1261;69050;-77
2023/09/08 06:49:15;;;;;;;4.20;2.50;;;;;;;18.59;52.36;100662.91;105627;1259;72445;-76
2023/09/08 06:51:42;;;;;;;5.40;3.10;;;;;;;18.65;52.28;100664.73;105708;1256;60431;-76
2023/09/08 06:54:10;;;;;;;5.80;2.70;;;;;;;18.74;51.85;100665.48;105677;1259;60023;-78
2023/09/08 06:56:39;;;;;;;5.50;2.50;;;;;;;18.80;51.73;100660.70;105875;1253;72148;-78
2023/09/08 06:59:07;;;;;;;8.80;3.00;;;;;;;18.86;51.42;100660.45;105764;1259;70179;-77
2023/09/08 07:01:35;;;;;;;9.10;3.00;;;;;;;18.92;51.43;100657.91;105948;1256;71467;-77
2023/09/08 07:04:03;;;;;;;4.90;3.20;;;;;;;18.98;50.93;100657.14;107354;1258;59648;-81
2023/09/08 07:06:31;;;;;;;5.90;2.60;;;;;;;19.01;51.28;100658.48;109038;1253;59282;-82
2023/09/08 07:08:59;;;;;;;6.10;3.10;;;;;;;19.09;51.34;100654.99;108639;1253;71600;-83
2023/09/08 07:11:27;;;;;;;6.70;3.10;;;;;;;19.19;50.84;100657.59;108092;1254;69198;-81
2023/09/08 07:13:54;;;;;;;6.30;2.80;;;;;;;19.29;50.69;100660.43;106245;1253;72707;-81
2023/09/08 07:16:22;;;;;;;6.40;3.20;;;;;;;19.39;50.56;100656.58;106032;1260;59502;-82
2023/09/08 07:18:49;;;;;;;3.70;2.40;;;;;;;19.50;49.97;100660.77;106037;1257;61032;-82
2023/09/08 07:21:17;;;;;;;5.80;2.60;;;;;;;19.59;49.29;100659.21;106055;1256;73000;-81
2023/09/08 07:23:44;;;;;;;5.60;2.20;;;;;;;19.64;49.08;100655.58;105864;1255;68982;-82
2023/09/08 07:26:13;;;;;;;4.40;2.50;;;;;;;19.72;48.60;100656.05;105758;1261;73076;-82
2023/09/08 07:28:41;;;;;;;4.10;2.30;;;;;;;19.81;48.36;100650.52;106008;1254;60885;-80
2023/09/08 07:31:11;;;;;;;6.40;2.50;;;;;;;19.89;47.92;100651.89;105936;1259;60439;-81
2023/09/08 07:33:41;;;;;;;4.70;2.30;;;;;;;19.93;47.71;100649.58;105850;1254;73393;-80
2023/09/08 07:36:10;;;;;;;3.70;2.30;;;;;;;19.97;47.66;100647.04;105928;1255;69882;-80
2023/09/08 07:38:38;;;;;;;4.30;2.20;;;;;;;20.03;47.48;100648.73;105921;1256;72792;-82
2023/09/08 07:41:06;;;;;;;4.70;2.00;;;;;;;20.08;47.33;100646.16;106187;1256;60368;-82
2023/09/08 07:43:33;;;;;;;3.90;2.50;;;;;;;20.13;47.19;100644.09;105909;1253;60463;-81
2023/09/08 07:46:01;;;;;;;5.10;2.10;;;;;;;20.15;47.04;100646.27;106090;1253;73862;-81
2023/09/08 07:48:28;;;;;;;5.80;2.30;;;;;;;20.20;47.12;100644.49;107693;1253;68716;-81
2023/09/08 07:50:58;;;;;;;3.50;2.50;;;;;;;20.27;46.82;100632.23;107917;1257;71585;-83
2023/09/08 07:53:27;;;;;;;3.50;2.20;;;;;;;20.29;46.75;100632.58;106440;1254;60438;-82
2023/09/08 07:55:55;;;;;;;4.90;2.20;;;;;;;20.31;46.97;100630.98;107700;1253;59118;-82
2023/09/08 07:58:22;;;;;;;4.50;2.50;;;;;;;20.38;47.13;100626.90;107634;1253;76002;-82
2023/09/08 08:00:50;;;;;;;5.10;2.10;;;;;;;20.50;46.74;100626.92;106422;1256;71074;-83
2023/09/08 08:03:17;;;;;;;3.90;2.30;;;;;;;20.58;46.71;100618.02;105998;1256;72670;-84
2023/09/08 08:05:44;;;;;;;3.10;2.00;;;;;;;20.69;46.54;100618.45;106903;1253;61019;-82
2023/09/08 08:08:12;;;;;;;4.80;2.90;;;;;;;20.80;46.47;100615.57;107345;1253;60483;-82
2023/09/08 08:10:41;;;;;;;5.30;2.80;;;;;;;20.91;46.12;100612.24;107404;1253;72581;-82
2023/09/08 08:13:08;;;;;;;7.60;2.40;;;;;;;21.01;45.70;100611.08;107413;1253;69412;-82
2023/09/08 08:15:37;;;;;;;4.70;3.20;;;;;;;21.07;45.69;100610.75;107335;1257;70094;-82
2023/09/08 08:18:05;;;;;;;4.70;2.40;;;;;;;21.17;45.45;100612.20;106637;1258;60549;-83
2023/09/08 08:20:36;;;;;;;6.80;2.50;;;;;;;21.25;45.25;100605.34;106992;1254;60543;-81
2023/09/08 08:23:04;;;;;;;3.50;2.30;;;;;;;21.31;44.75;100600.85;107642;1255;73760;-82
2023/09/08 08:25:32;;;;;;;4.60;2.40;;;;;;;21.35;44.70;100595.04;108111;1257;69453;-82
2023/09/08 08:28:00;;;;;;;3.60;2.20;;;;;;;21.43;45.02;100582.18;105904;1253;72915;-82
2023/09/08 08:30:28;;;;;;;5.70;2.20;;;;;;;21.59;44.61;100587.75;106580;1259;62391;-83
2023/09/08 08:32:56;;;;;;;6.10;2.20;;;;;;;21.72;44.20;100585.67;107977;1253;60483;-83
2023/09/08 08:35:24;;;;;;;5.50;2.90;;;;;;;21.87;43.96;100582.27;105844;1253;72682;-83
2023/09/08 08:37:51;;;;;;;6.30;2.40;;;;;;;22.04;43.56;100582.40;105786;1253;69615;-83
2023/09/08 08:40:19;;;;;;;3.50;2.40;;;;;;;22.16;43.15;100577.11;105743;1256;72707;-82
2023/09/08 08:42:46;;;;;;;2.60;2.10;;;;;;;22.27;43.29;100579.39;105751;1256;60485;-82
2023/09/08 08:45:14;;;;;;;5.10;2.50;;;;;;;22.36;42.82;100576.80;105845;1255;60367;-79
2023/09/08 08:47:42;;;;;;;2.80;2.30;;;;;;;22.42;42.84;100568.03;105718;1261;72882;-83
2023/09/08 08:50:10;;;;;;;5.10;2.30;;;;;;;22.51;43.03;100566.96;105808;1253;70294;-82
2023/09/08 08:52:39;;;;;;;3.60;2.30;;;;;;;22.68;42.81;100564.92;105771;1255;72671;-82
2023/09/08 08:55:08;;;;;;;5.10;2.20;;;;;;;22.90;42.49;100562.17;105922;1253;60504;-82
2023/09/08 08:57:39;;;;;;;5.60;2.60;;;;;;;23.15;41.85;100560.27;105896;1258;62544;-81
2023/09/08 09:00:11;;;;;;;4.90;2.40;;;;;;;23.48;41.50;100565.80;105866;1253;72112;-82
2023/09/08 09:02:39;;;;;;;3.90;2.40;;;;;;;23.74;40.88;100562.70;106099;1253;68729;-82
2023/09/08 09:05:11;;;;;;;5.50;2.60;;;;;;;24.06;40.40;100560.80;106247;1256;71377;-81
2023/09/08 09:07:43;;;;;;;6.40;2.50;;;;;;;24.57;39.91;100559.86;106197;1257;60633;-82
2023/09/08 09:10:11;;;;;;;6.70;2.80;;;;;;;25.16;38.86;100553.56;107839;1253;60291;-83
2023/09/08 09:12:38;;;;;;;5.00;2.50;;;;;;;25.67;38.61;100546.90;107076;1254;72586;-83
2023/09/08 09:15:06;;;;;;;5.30;2.40;;;;;;;26.25;38.02;100548.44;106429;1254;68723;-82
2023/09/08 09:17:34;;;;;;;3.30;2.30;;;;;;;26.98;36.68;100548.12;108312;1255;74961;-84
2023/09/08 09:20:21;;;;;;;2.50;2.20;;;;;;;27.70;35.19;100550.49;108734;1254;60352;-83
2023/09/08 09:22:49;;;;;;;3.50;2.10;;;;;;;28.39;34.01;100540.19;109292;1254;58792;-82
2023/09/08 09:25:28;;;;;;;4.90;2.40;;;;;;;28.97;33.33;100536.81;109204;1254;72585;-83
2023/09/08 09:28:01;;;;;;;5.50;2.80;;;;;;;29.56;32.99;100535.59;106874;1254;70283;-84
2023/09/08 09:30:48;;;;;;;4.40;2.40;;;;;;;30.18;31.99;100527.40;106613;1259;71334;-82
2023/09/08 09:33:16;;;;;;;10.40;2.90;;;;;;;30.75;31.28;100523.09;106176;1257;60378;-83
2023/09/08 09:35:46;;;;;;;3.20;2.40;;;;;;;31.18;31.03;100518.52;105911;1254;60429;-84
2023/09/08 09:38:14;;;;;;;5.20;2.30;;;;;;;31.60;30.13;100511.96;105852;1261;72996;-84
2023/09/08 09:40:42;;;;;;;7.90;2.90;;;;;;;31.67;29.77;100510.90;105882;1259;68583;-83
2023/09/08 09:43:11;;;;;;;3.20;2.60;;;;;;;31.73;30.35;100504.30;105984;1256;71544;-82
2023/09/08 09:45:39;;;;;;;10.90;3.60;;;;;;;32.04;30.73;100499.35;106175;1258;60315;-84
2023/09/08 09:48:08;;;;;;;2.50;2.30;;;;;;;32.45;30.41;100501.47;107434;1254;60060;-83
2023/09/08 09:50:39;;;;;;;2.90;2.50;;;;;;;32.83;30.04;100495.59;107974;1258;72559;-83
2023/09/08 09:53:11;;;;;;;4.70;2.70;;;;;;;33.32;29.84;100493.00;106082;1256;68828;-80
2023/09/08 09:55:43;;;;;;;2.80;2.50;;;;;;;33.86;29.28;100487.92;105900;1259;72024;-83
2023/09/08 09:58:11;;;;;;;4.30;2.60;;;;;;;34.25;28.57;100482.67;105661;1255;60631;-81
2023/09/08 10:00:40;;;;;;;11.90;2.50;;;;;;;34.44;28.11;100481.77;105821;1258;60416;-84
2023/09/08 10:03:08;;;;;;;3.00;1.90;;;;;;;34.75;27.36;100475.83;105689;1256;72642;-84
2023/09/08 10:05:37;;;;;;;4.10;2.40;;;;;;;35.08;26.67;100472.20;105846;1258;61355;-82
2023/09/08 10:08:05;;;;;;;2.70;2.10;;;;;;;35.34;26.13;100472.15;105810;1258;63851;-82
2023/09/08 10:10:34;;;;;;;3.60;2.20;;;;;;;35.60;25.53;100469.80;105792;1258;60529;-84
2023/09/08 10:13:03;;;;;;;4.00;2.40;;;;;;;35.60;24.85;100467.33;105776;1259;60452;-83
2023/09/08 10:15:30;;;;;;;5.30;2.70;;;;;;;35.31;24.75;100467.45;106159;1256;63863;-83
2023/09/08 10:17:59;;;;;;;2.10;1.90;;;;;;;34.93;25.01;100470.30;106127;1259;60435;-83
2023/09/08 10:20:28;;;;;;;4.20;2.50;;;;;;;34.79;25.61;100463.05;105923;1259;71413;-83
2023/09/08 10:23:03;;;;;;;5.10;2.20;;;;;;;35.14;25.37;100466.43;105813;1258;60481;-81
2023/09/08 10:25:31;;;;;;;4.90;2.50;;;;;;;35.64;25.13;100465.43;106787;1258;60319;-83
2023/09/08 10:27:59;;;;;;;7.90;3.00;;;;;;;36.13;24.68;100460.71;106556;1256;65101;-80
2023/09/08 10:30:26;;;;;;;7.90;2.80;;;;;;;36.63;24.57;100449.08;108500;1254;61297;-82
2023/09/08 10:32:54;;;;;;;4.00;2.10;;;;;;;37.09;23.97;100440.43;108982;1254;62916;-83
2023/09/08 10:35:21;;;;;;;3.50;2.20;;;;;;;37.17;23.18;100439.53;108268;1256;60526;-84
2023/09/08 10:37:49;;;;;;;2.80;2.10;;;;;;;36.57;23.32;100438.70;106114;1259;60541;-82
2023/09/08 10:40:20;;;;;;;3.70;2.30;;;;;;;35.85;24.04;100432.79;105857;1254;63679;-81
2023/09/08 10:42:48;;;;;;;2.90;2.10;;;;;;;35.73;24.44;100429.45;105897;1256;61085;-79
2023/09/08 10:45:17;;;;;;;4.30;2.30;;;;;;;36.14;24.23;100421.77;105741;1258;63697;-80
2023/09/08 10:47:45;;;;;;;2.90;2.40;;;;;;;36.66;23.59;100417.86;105775;1259;60411;-81
2023/09/08 10:50:21;;;;;;;3.00;2.20;;;;;;;37.09;23.18;100418.69;105842;1259;60549;-82
2023/09/08 10:53:27;;;;;;;4.60;2.60;;;;;;;37.54;23.06;100418.17;105705;1254;63628;-81
2023/09/08 10:55:54;;;;;;;4.00;2.20;;;;;;;38.19;22.71;100412.16;105460;1266;63471;-82
2023/09/08 10:58:42;;;;;;;5.80;2.10;;;;;;;38.67;22.43;100406.61;105370;1265;65841;-80
2023/09/08 11:01:26;;;;;;;5.30;2.70;;;;;;;38.79;22.02;100402.60;105860;1259;60527;-83
2023/09/08 11:03:54;;;;;;;3.10;2.50;;;;;;;38.55;22.33;100399.04;107688;1255;60518;-83
2023/09/08 11:06:23;;;;;;;4.00;2.30;;;;;;;38.60;22.28;100399.16;108113;1254;63891;-81
2023/09/08 11:08:55;;;;;;;3.80;2.50;;;;;;;38.89;21.87;100397.16;108079;1254;61505;-82
2023/09/08 11:11:24;;;;;;;2.90;2.30;;;;;;;39.12;21.85;100393.52;107697;1256;65689;-85
2023/09/08 11:13:52;;;;;;;4.30;2.40;;;;;;;39.22;21.31;100391.71;105911;1258;60338;-83
2023/09/08 11:16:23;;;;;;;4.00;2.40;;;;;;;38.58;21.26;100387.96;105849;1256;60524;-81
2023/09/08 11:18:50;;;;;;;4.80;2.50;;;;;;;37.52;22.07;100385.81;105859;1261;64898;-82
2023/09/08 11:21:18;;;;;;;3.20;2.80;;;;;;;37.11;22.42;100384.44;105717;1254;63501;-81
2023/09/08 11:23:46;;;;;;;4.90;2.50;;;;;;;37.46;22.49;100381.66;106488;1254;63760;-79
2023/09/08 11:26:14;;;;;;;2.50;2.10;;;;;;;38.03;22.17;100372.43;105686;1261;60633;-79